createdAt,value
2022-08-21T00:00:16.000Z,20.6
2022-08-21T00:01:22.000Z,20.6
2022-08-21T00:02:28.000Z,19.6
2022-08-21T00:03:34.000Z,19
2022-08-21T00:04:40.000Z,20.6
2022-08-21T00:05:45.000Z,19.3
2022-08-21T00:06:51.000Z,20.6
2022-08-21T00:07:57.000Z,19.6
2022-08-21T00:09:03.000Z,19
2022-08-21T00:10:09.000Z,19.9
2022-08-21T00:11:15.000Z,20.3
2022-08-21T00:12:21.000Z,20.6
2022-08-21T00:13:28.000Z,19.9
2022-08-21T00:14:33.000Z,19.9
2022-08-21T00:15:38.000Z,19.6
2022-08-21T00:16:43.000Z,19.3
2022-08-21T00:17:48.000Z,19.3
2022-08-21T00:18:54.000Z,19.6
2022-08-21T00:20:00.000Z,19.9
2022-08-21T00:21:06.000Z,20.3
2022-08-21T00:22:12.000Z,20.3
2022-08-21T00:23:18.000Z,19.6
2022-08-21T00:24:24.000Z,19.9
2022-08-21T00:25:31.000Z,20.3
2022-08-21T00:26:37.000Z,19.6
2022-08-21T00:27:43.000Z,19.9
2022-08-21T00:28:49.000Z,20.3
2022-08-21T00:29:55.000Z,19.6
2022-08-21T00:31:01.000Z,19.9
2022-08-21T00:33:12.000Z,19.6
2022-08-21T00:34:18.000Z,19.6
2022-08-21T00:35:24.000Z,19.9
2022-08-21T00:36:30.000Z,20.3
2022-08-21T00:37:36.000Z,19.9
2022-08-21T00:38:43.000Z,19.3
2022-08-21T00:39:49.000Z,20.3
2022-08-21T00:40:55.000Z,19.3
2022-08-21T00:42:01.000Z,19
2022-08-21T00:43:07.000Z,19.6
2022-08-21T00:44:12.000Z,19.9
2022-08-21T00:45:17.000Z,20.3
2022-08-21T00:46:23.000Z,19.9
2022-08-21T00:47:28.000Z,19.3
2022-08-21T00:48:33.000Z,19.6
2022-08-21T00:49:39.000Z,20.3
2022-08-21T00:50:45.000Z,19.9
2022-08-21T00:51:51.000Z,19.9
2022-08-21T00:52:58.000Z,19.6
2022-08-21T00:54:04.000Z,19.9
2022-08-21T00:55:10.000Z,19.9
2022-08-21T00:56:16.000Z,19.3
2022-08-21T00:57:22.000Z,20.3
2022-08-21T00:58:28.000Z,19.6
2022-08-21T00:59:34.000Z,19.6
2022-08-21T01:00:40.000Z,19.9
2022-08-21T01:01:46.000Z,19.9
2022-08-21T01:02:51.000Z,20.3
2022-08-21T01:05:04.000Z,19
2022-08-21T01:06:10.000Z,19.6
2022-08-21T01:07:16.000Z,19.3
2022-08-21T01:08:22.000Z,19.9
2022-08-21T01:09:28.000Z,19
2022-08-21T01:10:34.000Z,19.9
2022-08-21T01:11:40.000Z,19.9
2022-08-21T01:12:46.000Z,19
2022-08-21T01:13:52.000Z,19.3
2022-08-21T01:14:58.000Z,19.6
2022-08-21T01:16:04.000Z,19.3
2022-08-21T01:17:09.000Z,19
2022-08-21T01:18:15.000Z,19.6
2022-08-21T01:19:21.000Z,19.9
2022-08-21T01:20:28.000Z,19
2022-08-21T01:21:34.000Z,20.3
2022-08-21T01:22:40.000Z,20.3
2022-08-21T01:23:46.000Z,19.6
2022-08-21T01:24:51.000Z,19.3
2022-08-21T01:25:56.000Z,20.6
2022-08-21T01:27:02.000Z,19.9
2022-08-21T01:28:07.000Z,19.6
2022-08-21T01:29:12.000Z,19.3
2022-08-21T01:30:18.000Z,20.3
2022-08-21T01:31:24.000Z,19.3
2022-08-21T01:32:30.000Z,19.6
2022-08-21T01:33:37.000Z,19.6
2022-08-21T01:34:43.000Z,20.3
2022-08-21T01:35:49.000Z,19
2022-08-21T01:36:55.000Z,19
2022-08-21T01:38:01.000Z,20.3
2022-08-21T01:39:07.000Z,19.9
2022-08-21T01:40:13.000Z,19.6
2022-08-21T01:41:19.000Z,19.3
2022-08-21T01:42:25.000Z,19
2022-08-21T01:43:30.000Z,19.9
2022-08-21T01:44:36.000Z,19
2022-08-21T01:45:42.000Z,19.9
2022-08-21T01:46:48.000Z,19
2022-08-21T01:47:55.000Z,19.6
2022-08-21T01:49:01.000Z,19.6
2022-08-21T01:50:07.000Z,19.6
2022-08-21T01:51:12.000Z,20.3
2022-08-21T01:52:17.000Z,19.3
2022-08-21T01:53:22.000Z,19.3
2022-08-21T01:54:27.000Z,19
2022-08-21T01:55:33.000Z,19.6
2022-08-21T01:56:38.000Z,19.6
2022-08-21T01:57:44.000Z,19.6
2022-08-21T01:58:50.000Z,19.6
2022-08-21T01:59:56.000Z,19.6
2022-08-21T02:01:03.000Z,19.6
2022-08-21T02:02:09.000Z,19.3
2022-08-21T02:03:15.000Z,19
2022-08-21T02:04:21.000Z,20.6
2022-08-21T02:05:27.000Z,19
2022-08-21T02:06:33.000Z,20.3
2022-08-21T02:07:39.000Z,19.3
2022-08-21T02:08:45.000Z,19.9
2022-08-21T02:09:51.000Z,19.6
2022-08-21T02:10:56.000Z,18.6
2022-08-21T02:12:02.000Z,19.3
2022-08-21T02:13:08.000Z,19.3
2022-08-21T02:14:15.000Z,18.3
2022-08-21T02:15:21.000Z,19
2022-08-21T02:16:26.000Z,19.6
2022-08-21T02:17:31.000Z,19.3
2022-08-21T02:18:37.000Z,19.3
2022-08-21T02:19:42.000Z,20.3
2022-08-21T02:20:47.000Z,18.3
2022-08-21T02:21:53.000Z,19.3
2022-08-21T02:22:59.000Z,18.6
2022-08-21T02:24:05.000Z,19.6
2022-08-21T02:25:11.000Z,19.9
2022-08-21T02:26:17.000Z,19.6
2022-08-21T02:27:24.000Z,19.9
2022-08-21T02:28:30.000Z,20.6
2022-08-21T02:29:36.000Z,19.3
2022-08-21T02:30:42.000Z,19.9
2022-08-21T02:32:54.000Z,19.6
2022-08-21T02:34:00.000Z,19.3
2022-08-21T02:35:05.000Z,19.3
2022-08-21T02:36:11.000Z,19
2022-08-21T02:37:17.000Z,19
2022-08-21T02:38:23.000Z,19.3
2022-08-21T02:39:29.000Z,19.6
2022-08-21T02:40:36.000Z,19.3
2022-08-21T02:41:42.000Z,18
2022-08-21T02:42:48.000Z,20.3
2022-08-21T02:43:53.000Z,19.3
2022-08-21T02:44:58.000Z,19
2022-08-21T02:46:03.000Z,19.3
2022-08-21T02:47:08.000Z,19.3
2022-08-21T02:48:14.000Z,19.6
2022-08-21T02:49:20.000Z,19.6
2022-08-21T02:50:26.000Z,18
2022-08-21T02:51:33.000Z,18.6
2022-08-21T02:52:39.000Z,19
2022-08-21T02:53:45.000Z,19
2022-08-21T02:54:51.000Z,19.3
2022-08-21T02:55:57.000Z,19
2022-08-21T02:57:03.000Z,19.3
2022-08-21T02:58:09.000Z,19.9
2022-08-21T02:59:15.000Z,19
2022-08-21T03:00:21.000Z,19.6
2022-08-21T03:01:26.000Z,19.3
2022-08-21T03:02:32.000Z,19.3
2022-08-21T03:03:38.000Z,19.3
2022-08-21T03:04:44.000Z,19.6
2022-08-21T03:05:50.000Z,19.6
2022-08-21T03:06:57.000Z,18.6
2022-08-21T03:08:03.000Z,19.6
2022-08-21T03:09:09.000Z,18.3
2022-08-21T03:10:15.000Z,18.6
2022-08-21T03:11:21.000Z,19.3
2022-08-21T03:12:27.000Z,19.6
2022-08-21T03:13:33.000Z,19.6
2022-08-21T03:14:39.000Z,19
2022-08-21T03:15:44.000Z,19
2022-08-21T03:16:50.000Z,18.6
2022-08-21T03:17:56.000Z,19
2022-08-21T03:19:02.000Z,18.6
2022-08-21T03:20:08.000Z,19.6
2022-08-21T03:21:14.000Z,19.3
2022-08-21T03:22:21.000Z,19.6
2022-08-21T03:23:27.000Z,19.6
2022-08-21T03:24:33.000Z,18.6
2022-08-21T03:25:39.000Z,19
2022-08-21T03:26:44.000Z,19
2022-08-21T03:27:49.000Z,19.3
2022-08-21T03:28:54.000Z,19.3
2022-08-21T03:29:59.000Z,19.3
2022-08-21T03:31:05.000Z,19.3
2022-08-21T03:32:11.000Z,18.6
2022-08-21T03:33:17.000Z,19.3
2022-08-21T03:34:24.000Z,19.3
2022-08-21T03:35:30.000Z,19.3
2022-08-21T03:36:36.000Z,19.9
2022-08-21T03:38:48.000Z,19.9
2022-08-21T03:39:54.000Z,19
2022-08-21T03:41:00.000Z,18.6
2022-08-21T03:42:06.000Z,19.9
2022-08-21T03:43:12.000Z,19.3
2022-08-21T03:44:17.000Z,19
2022-08-21T03:45:23.000Z,19.3
2022-08-21T03:46:29.000Z,19
2022-08-21T03:47:35.000Z,19.3
2022-08-21T03:48:42.000Z,19.6
2022-08-21T03:49:48.000Z,19
2022-08-21T03:50:54.000Z,19.6
2022-08-21T03:52:00.000Z,19
2022-08-21T03:53:05.000Z,19.3
2022-08-21T03:54:10.000Z,19.9
2022-08-21T03:55:15.000Z,20.3
2022-08-21T03:56:20.000Z,19.3
2022-08-21T03:57:26.000Z,19
2022-08-21T03:58:32.000Z,18.6
2022-08-21T03:59:38.000Z,19.6
2022-08-21T04:00:44.000Z,19.3
2022-08-21T04:01:50.000Z,19
2022-08-21T04:02:57.000Z,19.3
2022-08-21T04:04:03.000Z,19.3
2022-08-21T04:05:09.000Z,19
2022-08-21T04:06:15.000Z,19
2022-08-21T04:07:21.000Z,19.3
2022-08-21T04:08:27.000Z,18.6
2022-08-21T04:09:33.000Z,19.3
2022-08-21T04:10:38.000Z,19.3
2022-08-21T04:11:44.000Z,18.3
2022-08-21T04:12:50.000Z,19
2022-08-21T04:13:56.000Z,19.3
2022-08-21T04:15:02.000Z,19
2022-08-21T04:16:09.000Z,19
2022-08-21T04:17:15.000Z,19.3
2022-08-21T04:18:20.000Z,18.6
2022-08-21T04:19:25.000Z,19.6
2022-08-21T04:20:30.000Z,19.3
2022-08-21T04:21:35.000Z,19.3
2022-08-21T04:22:41.000Z,18.3
2022-08-21T04:23:47.000Z,19.6
2022-08-21T04:24:53.000Z,18
2022-08-21T04:25:59.000Z,19
2022-08-21T04:27:05.000Z,19
2022-08-21T04:28:11.000Z,19.6
2022-08-21T04:29:18.000Z,19.3
2022-08-21T04:30:24.000Z,19
2022-08-21T04:31:30.000Z,18.6
2022-08-21T04:32:36.000Z,19
2022-08-21T04:33:42.000Z,19.9
2022-08-21T04:34:48.000Z,19.3
2022-08-21T04:35:53.000Z,19
2022-08-21T04:36:59.000Z,18
2022-08-21T04:38:05.000Z,19.6
2022-08-21T04:39:11.000Z,19.3
2022-08-21T04:40:17.000Z,19
2022-08-21T04:41:23.000Z,18.6
2022-08-21T04:42:30.000Z,18.6
2022-08-21T04:43:35.000Z,19
2022-08-21T04:44:40.000Z,19.3
2022-08-21T04:45:45.000Z,19
2022-08-21T04:46:50.000Z,19
2022-08-21T04:47:56.000Z,19
2022-08-21T04:49:02.000Z,19
2022-08-21T04:50:08.000Z,18.6
2022-08-21T04:51:14.000Z,19
2022-08-21T04:52:20.000Z,18.3
2022-08-21T04:53:26.000Z,19.3
2022-08-21T04:54:33.000Z,19.6
2022-08-21T04:55:39.000Z,19.3
2022-08-21T04:56:45.000Z,19.3
2022-08-21T04:57:51.000Z,18.6
2022-08-21T04:58:57.000Z,18.3
2022-08-21T05:00:03.000Z,19.6
2022-08-21T05:01:08.000Z,18.6
2022-08-21T05:02:14.000Z,19.3
2022-08-21T05:03:20.000Z,19
2022-08-21T05:04:26.000Z,19.3
2022-08-21T05:06:38.000Z,19
2022-08-21T05:07:44.000Z,19.6
2022-08-21T05:08:51.000Z,18.6
2022-08-21T05:09:57.000Z,18.6
2022-08-21T05:11:03.000Z,18.3
2022-08-21T05:12:09.000Z,18.6
2022-08-21T05:13:15.000Z,19.3
2022-08-21T05:14:21.000Z,18.6
2022-08-21T05:15:26.000Z,18.6
2022-08-21T05:16:32.000Z,19.3
2022-08-21T05:17:38.000Z,19.3
2022-08-21T05:18:44.000Z,19.3
2022-08-21T05:19:50.000Z,19.9
2022-08-21T05:20:56.000Z,19
2022-08-21T05:22:02.000Z,18.3
2022-08-21T05:23:09.000Z,19
2022-08-21T05:24:14.000Z,19
2022-08-21T05:25:19.000Z,19
2022-08-21T05:26:24.000Z,18.3
2022-08-21T05:27:29.000Z,19
2022-08-21T05:28:35.000Z,18
2022-08-21T05:29:41.000Z,19
2022-08-21T05:30:47.000Z,18
2022-08-21T05:31:53.000Z,19
2022-08-21T05:32:59.000Z,18.6
2022-08-21T05:34:05.000Z,19.6
2022-08-21T05:35:11.000Z,18.6
2022-08-21T05:36:17.000Z,19.6
2022-08-21T05:37:23.000Z,18.3
2022-08-21T05:38:29.000Z,19
2022-08-21T05:39:35.000Z,19.6
2022-08-21T05:40:41.000Z,19
2022-08-21T05:41:47.000Z,18
2022-08-21T05:42:53.000Z,19
2022-08-21T05:43:59.000Z,19.3
2022-08-21T05:45:05.000Z,19
2022-08-21T05:46:11.000Z,18
2022-08-21T05:47:17.000Z,19
2022-08-21T05:48:23.000Z,17.7
2022-08-21T05:49:28.000Z,18.6
2022-08-21T05:50:33.000Z,19.3
2022-08-21T05:51:39.000Z,18.3
2022-08-21T05:52:44.000Z,19.3
2022-08-21T05:53:50.000Z,18.6
2022-08-21T05:54:56.000Z,18.6
2022-08-21T05:56:02.000Z,19.3
2022-08-21T05:57:08.000Z,18.3
2022-08-21T05:58:14.000Z,19
2022-08-21T05:59:20.000Z,18.6
2022-08-21T06:00:26.000Z,18.6
2022-08-21T06:01:32.000Z,19
2022-08-21T06:02:38.000Z,18.6
2022-08-21T06:03:44.000Z,18.3
2022-08-21T06:04:50.000Z,18.6
2022-08-21T06:05:57.000Z,19
2022-08-21T06:07:03.000Z,19
2022-08-21T06:08:08.000Z,18.6
2022-08-21T06:09:14.000Z,18.3
2022-08-21T06:10:20.000Z,17.7
2022-08-21T06:12:32.000Z,18.6
2022-08-21T06:13:38.000Z,18.6
2022-08-21T06:14:44.000Z,18
2022-08-21T06:15:49.000Z,18
2022-08-21T06:16:54.000Z,19
2022-08-21T06:17:59.000Z,18.3
2022-08-21T06:19:04.000Z,17.7
2022-08-21T06:20:11.000Z,19
2022-08-21T06:21:17.000Z,19
2022-08-21T06:23:29.000Z,18.6
2022-08-21T06:24:35.000Z,19
2022-08-21T06:25:41.000Z,18.3
2022-08-21T06:26:47.000Z,19
2022-08-21T06:27:53.000Z,19
2022-08-21T06:28:59.000Z,18.6
2022-08-21T06:30:05.000Z,18.3
2022-08-21T06:31:11.000Z,18
2022-08-21T06:32:17.000Z,18.6
2022-08-21T06:33:22.000Z,17.7
2022-08-21T06:34:28.000Z,18.3
2022-08-21T06:35:35.000Z,19.3
2022-08-21T06:36:41.000Z,18.6
2022-08-21T06:37:47.000Z,19.3
2022-08-21T06:38:53.000Z,18.3
2022-08-21T06:39:59.000Z,19.3
2022-08-21T06:41:05.000Z,19
2022-08-21T06:42:10.000Z,19.3
2022-08-21T06:43:15.000Z,18.6
2022-08-21T06:44:20.000Z,19.3
2022-08-21T06:45:26.000Z,18.3
2022-08-21T06:46:31.000Z,19
2022-08-21T06:47:38.000Z,19.3
2022-08-21T06:48:44.000Z,18.3
2022-08-21T06:49:50.000Z,18.3
2022-08-21T06:50:56.000Z,18.3
2022-08-21T06:52:02.000Z,18.6
2022-08-21T06:53:08.000Z,19.6
2022-08-21T06:54:14.000Z,18.6
2022-08-21T06:55:20.000Z,18.3
2022-08-21T06:56:26.000Z,18
2022-08-21T06:57:32.000Z,18.6
2022-08-21T06:58:38.000Z,18.3
2022-08-21T06:59:44.000Z,18
2022-08-21T07:00:49.000Z,18
2022-08-21T07:01:56.000Z,18
2022-08-21T07:03:02.000Z,18.3
2022-08-21T07:04:08.000Z,18.6
2022-08-21T07:05:14.000Z,17.4
2022-08-21T07:06:20.000Z,18
2022-08-21T07:07:26.000Z,19
2022-08-21T07:08:32.000Z,17.7
2022-08-21T07:09:37.000Z,19
2022-08-21T07:10:42.000Z,19
2022-08-21T07:11:47.000Z,18
2022-08-21T07:12:52.000Z,18.3
2022-08-21T07:13:58.000Z,18.3
2022-08-21T07:15:04.000Z,18.3
2022-08-21T07:16:11.000Z,19
2022-08-21T07:17:17.000Z,18.6
2022-08-21T07:18:23.000Z,18
2022-08-21T07:19:29.000Z,19
2022-08-21T07:20:35.000Z,19.6
2022-08-21T07:21:41.000Z,18.3
2022-08-21T07:22:47.000Z,18.3
2022-08-21T07:23:53.000Z,18.3
2022-08-21T07:24:59.000Z,18.6
2022-08-21T07:26:05.000Z,19.3
2022-08-21T07:27:10.000Z,18.6
2022-08-21T07:29:23.000Z,19
2022-08-21T07:30:29.000Z,18.3
2022-08-21T07:31:35.000Z,18.6
2022-08-21T07:32:41.000Z,18.3
2022-08-21T07:33:47.000Z,18
2022-08-21T07:34:53.000Z,19.3
2022-08-21T07:35:58.000Z,19.3
2022-08-21T07:37:03.000Z,18.3
2022-08-21T07:38:08.000Z,17.7
2022-08-21T07:40:19.000Z,18
2022-08-21T07:41:26.000Z,18.3
2022-08-21T07:42:32.000Z,17.7
2022-08-21T07:43:38.000Z,18.3
2022-08-21T07:44:44.000Z,18.6
2022-08-21T07:45:50.000Z,18.3
2022-08-21T07:46:56.000Z,18
2022-08-21T07:48:02.000Z,18.6
2022-08-21T07:49:08.000Z,18
2022-08-21T07:50:14.000Z,17.7
2022-08-21T07:51:20.000Z,19
2022-08-21T07:52:26.000Z,18.3
2022-08-21T07:53:31.000Z,18.3
2022-08-21T07:54:38.000Z,18.3
2022-08-21T07:55:44.000Z,18
2022-08-21T07:56:50.000Z,18.3
2022-08-21T07:57:56.000Z,19
2022-08-21T07:59:02.000Z,18.3
2022-08-21T08:00:08.000Z,19
2022-08-21T08:01:14.000Z,18.3
2022-08-21T08:02:20.000Z,19.3
2022-08-21T08:03:26.000Z,18
2022-08-21T08:04:32.000Z,17.7
2022-08-21T08:05:38.000Z,18
2022-08-21T08:06:44.000Z,18.3
2022-08-21T08:07:49.000Z,18.3
2022-08-21T08:08:55.000Z,18.6
2022-08-21T08:10:02.000Z,19
2022-08-21T08:11:08.000Z,18.3
2022-08-21T08:12:14.000Z,18.6
2022-08-21T08:13:20.000Z,18
2022-08-21T08:14:26.000Z,18.3
2022-08-21T08:15:32.000Z,19
2022-08-21T08:16:38.000Z,18.6
2022-08-21T08:17:44.000Z,18.3
2022-08-21T08:18:50.000Z,17.7
2022-08-21T08:19:56.000Z,18
2022-08-21T08:21:02.000Z,18
2022-08-21T08:22:08.000Z,18.3
2022-08-21T08:23:13.000Z,18.3
2022-08-21T08:24:19.000Z,18.6
2022-08-21T08:25:26.000Z,18.6
2022-08-21T08:26:32.000Z,18.6
2022-08-21T08:27:38.000Z,17.7
2022-08-21T08:28:44.000Z,18.6
2022-08-21T08:29:50.000Z,18.3
2022-08-21T08:30:56.000Z,18.3
2022-08-21T08:32:02.000Z,18
2022-08-21T08:33:08.000Z,18.6
2022-08-21T08:35:20.000Z,18.3
2022-08-21T08:36:26.000Z,17.7
2022-08-21T08:37:32.000Z,18.3
2022-08-21T08:38:38.000Z,18.6
2022-08-21T08:39:44.000Z,18.6
2022-08-21T08:40:50.000Z,17.7
2022-08-21T08:41:56.000Z,18.6
2022-08-21T08:43:02.000Z,17.7
2022-08-21T08:44:07.000Z,19
2022-08-21T08:45:12.000Z,18.3
2022-08-21T08:46:18.000Z,19.3
2022-08-21T08:47:24.000Z,18.6
2022-08-21T08:48:29.000Z,18
2022-08-21T08:49:34.000Z,18.3
2022-08-21T08:50:41.000Z,18.6
2022-08-21T08:51:47.000Z,18
2022-08-21T08:52:53.000Z,18
2022-08-21T08:53:59.000Z,18.6
2022-08-21T08:55:05.000Z,17.7
2022-08-21T08:56:11.000Z,18.3
2022-08-21T08:57:17.000Z,19.6
2022-08-21T08:58:23.000Z,19.3
2022-08-21T08:59:29.000Z,18.3
2022-08-21T09:00:35.000Z,19
2022-08-21T09:01:41.000Z,19
2022-08-21T09:02:48.000Z,19.3
2022-08-21T09:03:53.000Z,19
2022-08-21T09:04:59.000Z,18
2022-08-21T09:06:05.000Z,19
2022-08-21T09:07:11.000Z,18.6
2022-08-21T09:08:17.000Z,18.6
2022-08-21T09:09:23.000Z,18.3
2022-08-21T09:10:29.000Z,18.6
2022-08-21T09:11:35.000Z,17.7
2022-08-21T09:12:41.000Z,18.3
2022-08-21T09:13:47.000Z,18.6
2022-08-21T09:14:53.000Z,18.3
2022-08-21T09:15:59.000Z,19
2022-08-21T09:17:05.000Z,18
2022-08-21T09:18:11.000Z,18.6
2022-08-21T09:19:17.000Z,17.4
2022-08-21T09:20:23.000Z,18.3
2022-08-21T09:21:29.000Z,18.6
2022-08-21T09:22:34.000Z,18
2022-08-21T09:23:39.000Z,18.3
2022-08-21T09:24:45.000Z,18
2022-08-21T09:25:50.000Z,18
2022-08-21T09:26:56.000Z,18.6
2022-08-21T09:28:01.000Z,17.7
2022-08-21T09:29:07.000Z,18
2022-08-21T09:30:14.000Z,18
2022-08-21T09:31:20.000Z,18
2022-08-21T09:32:26.000Z,18
2022-08-21T09:33:32.000Z,18.3
2022-08-21T09:34:38.000Z,18.6
2022-08-21T09:35:44.000Z,18.3
2022-08-21T09:36:50.000Z,18.6
2022-08-21T09:37:56.000Z,18.3
2022-08-21T09:39:02.000Z,18.3
2022-08-21T09:41:14.000Z,18
2022-08-21T09:42:19.000Z,18.3
2022-08-21T09:43:25.000Z,19
2022-08-21T09:44:31.000Z,18.6
2022-08-21T09:45:38.000Z,18.3
2022-08-21T09:46:44.000Z,18.3
2022-08-21T09:47:50.000Z,18.6
2022-08-21T09:48:56.000Z,18.3
2022-08-21T09:50:02.000Z,18.6
2022-08-21T09:51:08.000Z,18.3
2022-08-21T09:52:14.000Z,18.6
2022-08-21T09:53:20.000Z,18.3
2022-08-21T09:54:26.000Z,18
2022-08-21T09:55:31.000Z,19
2022-08-21T09:56:36.000Z,18.3
2022-08-21T09:57:41.000Z,18
2022-08-21T09:58:47.000Z,18.6
2022-08-21T09:59:53.000Z,18.3
2022-08-21T10:00:59.000Z,18.6
2022-08-21T10:02:05.000Z,18.3
2022-08-21T10:03:11.000Z,18
2022-08-21T10:04:17.000Z,18.3
2022-08-21T10:05:23.000Z,18.3
2022-08-21T10:06:29.000Z,18.6
2022-08-21T10:07:35.000Z,18.6
2022-08-21T10:08:41.000Z,19.6
2022-08-21T10:09:47.000Z,19
2022-08-21T10:10:53.000Z,18.3
2022-08-21T10:12:00.000Z,18.6
2022-08-21T10:13:06.000Z,18.6
2022-08-21T10:14:11.000Z,18.6
2022-08-21T10:15:17.000Z,18
2022-08-21T10:16:23.000Z,17.7
2022-08-21T10:17:29.000Z,18.3
2022-08-21T10:18:35.000Z,19
2022-08-21T10:19:41.000Z,19
2022-08-21T10:20:47.000Z,18.3
2022-08-21T10:21:53.000Z,18.6
2022-08-21T10:22:59.000Z,18
2022-08-21T10:24:05.000Z,19.3
2022-08-21T10:25:11.000Z,18.3
2022-08-21T10:26:17.000Z,18.6
2022-08-21T10:27:24.000Z,18.6
2022-08-21T10:28:29.000Z,19
2022-08-21T10:29:35.000Z,18
2022-08-21T10:30:41.000Z,18.3
2022-08-21T10:31:46.000Z,18
2022-08-21T10:32:51.000Z,18.3
2022-08-21T10:33:56.000Z,18
2022-08-21T10:35:01.000Z,19.3
2022-08-21T10:36:07.000Z,18
2022-08-21T10:37:13.000Z,18
2022-08-21T10:38:19.000Z,18
2022-08-21T10:39:25.000Z,17.7
2022-08-21T10:40:32.000Z,18.6
2022-08-21T10:41:38.000Z,18.6
2022-08-21T10:42:44.000Z,19.9
2022-08-21T10:43:50.000Z,19
2022-08-21T10:44:56.000Z,18.3
2022-08-21T10:46:02.000Z,18.6
2022-08-21T10:47:08.000Z,18.3
2022-08-21T10:48:14.000Z,18
2022-08-21T10:49:19.000Z,18.6
2022-08-21T10:50:25.000Z,18.6
2022-08-21T10:51:31.000Z,18.6
2022-08-21T10:52:37.000Z,18
2022-08-21T10:53:43.000Z,18.3
2022-08-21T10:54:50.000Z,18.3
2022-08-21T10:55:56.000Z,18
2022-08-21T10:58:07.000Z,19.3
2022-08-21T10:59:12.000Z,19.3
2022-08-21T11:00:17.000Z,18.3
2022-08-21T11:01:22.000Z,18.3
2022-08-21T11:02:27.000Z,18.6
2022-08-21T11:03:33.000Z,19
2022-08-21T11:04:39.000Z,19.3
2022-08-21T11:05:45.000Z,18.3
2022-08-21T11:06:51.000Z,19
2022-08-21T11:09:04.000Z,18.3
2022-08-21T11:10:10.000Z,18.3
2022-08-21T11:11:16.000Z,18.3
2022-08-21T11:12:22.000Z,19.3
2022-08-21T11:13:28.000Z,19
2022-08-21T11:14:34.000Z,19.3
2022-08-21T11:15:40.000Z,19
2022-08-21T11:16:45.000Z,18.6
2022-08-21T11:17:51.000Z,18.3
2022-08-21T11:18:57.000Z,18.3
2022-08-21T11:20:03.000Z,19
2022-08-21T11:21:10.000Z,18.6
2022-08-21T11:22:16.000Z,18.3
2022-08-21T11:23:22.000Z,19.3
2022-08-21T11:24:28.000Z,18.3
2022-08-21T11:25:33.000Z,18.3
2022-08-21T11:26:38.000Z,19
2022-08-21T11:27:43.000Z,17.4
2022-08-21T11:28:48.000Z,18.6
2022-08-21T11:29:54.000Z,18.3
2022-08-21T11:31:00.000Z,19
2022-08-21T11:32:06.000Z,18.3
2022-08-21T11:33:12.000Z,19
2022-08-21T11:34:18.000Z,19.3
2022-08-21T11:35:25.000Z,18.3
2022-08-21T11:36:31.000Z,18.6
2022-08-21T11:37:37.000Z,19.3
2022-08-21T11:38:43.000Z,19
2022-08-21T11:39:49.000Z,18
2022-08-21T11:40:55.000Z,18.3
2022-08-21T11:42:01.000Z,18.6
2022-08-21T11:43:06.000Z,17.7
2022-08-21T11:44:12.000Z,19.3
2022-08-21T11:45:18.000Z,19
2022-08-21T11:46:24.000Z,18.6
2022-08-21T11:47:31.000Z,19.3
2022-08-21T11:48:37.000Z,18
2022-08-21T11:49:43.000Z,18.3
2022-08-21T11:50:48.000Z,19
2022-08-21T11:51:53.000Z,19.3
2022-08-21T11:52:59.401Z,18.3
2022-08-21T11:54:05.000Z,18.6
2022-08-21T11:55:10.000Z,18
2022-08-21T11:56:15.000Z,19.6
2022-08-21T11:57:21.000Z,19.3
2022-08-21T11:58:27.000Z,19.3
2022-08-21T11:59:33.000Z,19
2022-08-21T12:00:40.000Z,17.7
2022-08-21T12:01:46.000Z,19.3
2022-08-21T12:02:52.000Z,18.6
2022-08-21T12:03:58.000Z,18.6
2022-08-21T12:05:04.000Z,19
2022-08-21T12:06:10.000Z,18.6
2022-08-21T12:07:16.000Z,18.6
2022-08-21T12:08:22.000Z,19
2022-08-21T12:09:28.000Z,19.6
2022-08-21T12:10:33.000Z,19
2022-08-21T12:11:39.000Z,19.6
2022-08-21T12:12:45.000Z,19.6
2022-08-21T12:14:58.000Z,18.3
2022-08-21T12:16:04.000Z,19.6
2022-08-21T12:17:10.000Z,19
2022-08-21T12:18:16.000Z,18.6
2022-08-21T12:19:22.000Z,19
2022-08-21T12:20:28.000Z,19
2022-08-21T12:21:34.000Z,19.3
2022-08-21T12:22:40.000Z,19.3
2022-08-21T12:23:46.000Z,18.6
2022-08-21T12:24:51.000Z,19.6
2022-08-21T12:25:57.000Z,19
2022-08-21T12:27:03.000Z,19.6
2022-08-21T12:28:09.000Z,19
2022-08-21T12:29:16.000Z,19.6
2022-08-21T12:30:22.000Z,19.3
2022-08-21T12:31:28.000Z,19.3
2022-08-21T12:32:34.000Z,19
2022-08-21T12:33:40.000Z,19
2022-08-21T12:34:46.000Z,19.3
2022-08-21T12:35:52.000Z,19
2022-08-21T12:36:58.000Z,18.3
2022-08-21T12:38:04.000Z,19.3
2022-08-21T12:39:09.000Z,19
2022-08-21T12:40:15.000Z,19.9
2022-08-21T12:41:21.000Z,18.3
2022-08-21T12:42:27.000Z,19
2022-08-21T12:43:33.000Z,19
2022-08-21T12:44:40.000Z,19.6
2022-08-21T12:45:46.000Z,19
2022-08-21T12:46:52.000Z,19
2022-08-21T12:47:58.000Z,19.6
2022-08-21T12:49:04.000Z,19.3
2022-08-21T12:50:10.000Z,19.6
2022-08-21T12:51:16.000Z,18.6
2022-08-21T12:52:22.000Z,19.3
2022-08-21T12:53:27.000Z,19.3
2022-08-21T12:54:33.000Z,19.3
2022-08-21T12:55:40.000Z,18.6
2022-08-21T12:56:46.000Z,19.9
2022-08-21T12:57:52.000Z,19
2022-08-21T12:58:57.000Z,18.3
2022-08-21T13:00:03.000Z,19.6
2022-08-21T13:01:09.000Z,19.3
2022-08-21T13:02:15.000Z,19.6
2022-08-21T13:03:21.000Z,19.6
2022-08-21T13:04:27.000Z,19
2022-08-21T13:05:33.000Z,19.3
2022-08-21T13:06:39.000Z,19
2022-08-21T13:07:45.000Z,19.6
2022-08-21T13:09:57.000Z,19.9
2022-08-21T13:11:04.000Z,19.6
2022-08-21T13:12:10.000Z,19.6
2022-08-21T13:13:15.000Z,19.3
2022-08-21T13:14:21.000Z,19.6
2022-08-21T13:15:27.000Z,19
2022-08-21T13:16:33.000Z,19.6
2022-08-21T13:17:39.000Z,19.9
2022-08-21T13:18:45.000Z,19.9
2022-08-21T13:19:51.000Z,19.6
2022-08-21T13:20:57.000Z,19.3
2022-08-21T13:22:03.000Z,18.6
2022-08-21T13:23:09.000Z,20.3
2022-08-21T13:24:15.000Z,19.6
2022-08-21T13:25:21.000Z,19.3
2022-08-21T13:26:28.000Z,19.6
2022-08-21T13:27:33.000Z,19.6
2022-08-21T13:28:39.000Z,19.6
2022-08-21T13:29:45.000Z,19.6
2022-08-21T13:30:51.000Z,20.3
2022-08-21T13:31:57.000Z,19.9
2022-08-21T13:33:03.000Z,19.3
2022-08-21T13:34:09.000Z,19
2022-08-21T13:35:15.000Z,19
2022-08-21T13:36:21.000Z,19.6
2022-08-21T13:37:27.000Z,19.9
2022-08-21T13:38:34.000Z,19
2022-08-21T13:39:40.000Z,19.6
2022-08-21T13:40:46.000Z,19
2022-08-21T13:41:51.000Z,19.9
2022-08-21T13:42:57.000Z,19.6
2022-08-21T13:44:03.000Z,19.9
2022-08-21T13:45:09.000Z,19.6
2022-08-21T13:46:15.000Z,19.9
2022-08-21T13:47:21.000Z,19.6
2022-08-21T13:48:27.000Z,20.3
2022-08-21T13:49:33.000Z,19.3
2022-08-21T13:50:39.000Z,20.3
2022-08-21T13:51:45.000Z,20.3
2022-08-21T13:53:58.000Z,19.6
2022-08-21T13:55:04.000Z,19.6
2022-08-21T13:56:10.000Z,20.6
2022-08-21T13:57:15.000Z,19.6
2022-08-21T13:59:27.000Z,19.9
2022-08-21T14:00:33.000Z,19.9
2022-08-21T14:01:39.000Z,20.3
2022-08-21T14:02:45.000Z,19.6
2022-08-21T14:04:57.000Z,19.9
2022-08-21T14:06:02.000Z,20.3
2022-08-21T14:07:07.000Z,20.6
2022-08-21T14:08:14.000Z,20.6
2022-08-21T14:09:20.000Z,20.3
2022-08-21T14:10:26.000Z,20.3
2022-08-21T14:11:32.000Z,19.3
2022-08-21T14:12:38.000Z,20.3
2022-08-21T14:13:44.000Z,20.9
2022-08-21T14:15:56.000Z,20.3
2022-08-21T14:17:02.000Z,19.9
2022-08-21T14:18:08.000Z,19.6
2022-08-21T14:19:14.000Z,20.3
2022-08-21T14:20:21.000Z,20.3
2022-08-21T14:21:26.000Z,20.6
2022-08-21T14:22:32.000Z,20.9
2022-08-21T14:23:38.000Z,20.6
2022-08-21T14:24:44.000Z,19.9
2022-08-21T14:25:50.000Z,20.3
2022-08-21T14:26:56.000Z,20.6
2022-08-21T14:28:02.000Z,19.9
2022-08-21T14:29:08.000Z,20.3
2022-08-21T14:30:14.000Z,20.3
2022-08-21T14:31:19.000Z,20.6
2022-08-21T14:32:24.000Z,20.6
2022-08-21T14:33:29.000Z,20.3
2022-08-21T14:34:35.000Z,19.9
2022-08-21T14:35:41.000Z,20.6
2022-08-21T14:36:47.000Z,20.9
2022-08-21T14:37:53.000Z,20.3
2022-08-21T14:38:59.000Z,20.3
2022-08-21T14:40:05.000Z,20.6
2022-08-21T14:41:11.000Z,21.5
2022-08-21T14:42:17.000Z,20.3
2022-08-21T14:43:23.000Z,20.3
2022-08-21T14:44:29.000Z,20.6
2022-08-21T14:45:35.000Z,20.6
2022-08-21T14:46:42.000Z,20.9
2022-08-21T14:47:48.000Z,21.2
2022-08-21T14:48:53.000Z,19.9
2022-08-21T14:49:59.000Z,20.3
2022-08-21T14:51:05.000Z,19.9
2022-08-21T14:52:11.000Z,20.9
2022-08-21T14:53:17.000Z,20.3
2022-08-21T14:54:23.000Z,19.9
2022-08-21T14:55:29.000Z,20.3
2022-08-21T14:56:34.000Z,20.6
2022-08-21T14:57:39.000Z,20.9
2022-08-21T14:58:44.000Z,20.9
2022-08-21T14:59:49.000Z,20.9
2022-08-21T15:00:56.000Z,20.3
2022-08-21T15:02:02.000Z,20.9
2022-08-21T15:03:08.000Z,19.9
2022-08-21T15:04:14.000Z,20.6
2022-08-21T15:05:20.000Z,20.6
2022-08-21T15:06:26.000Z,20.6
2022-08-21T15:07:32.000Z,21.5
2022-08-21T15:08:38.000Z,20.6
2022-08-21T15:10:50.000Z,21.5
2022-08-21T15:11:56.000Z,21.5
2022-08-21T15:13:03.000Z,20.9